Fehn Light — V2FE6 — position and weather

sailwx.info

Track history (hours):
 
Tides and Currents Weather Stations Pressure Air Temp Water Temp Dewpoint Dewpoint Depression Visibility Wind Speed Wind Dir Waves Ship Positions

Fehn Light

Last reported at 2018-Feb-19 10:35 UTC. Time now 2018-Feb-20 02:02 UTC.
Position N 56°07' E 016°49'.

Length 107 m; draft 5.4 m.

Type: Cargo ship. MMSI: 305653000.

Date/timePositionNaut miles runAvg speedWind from/ knotsBaromVisibWave heightAir tempDewpointWater temp
2018-Feb-19 10:35N 56°07' E 016°49'112.3
2018-Feb-19 10:30N 56°06' E 016°48'612.1
2018-Feb-19 10:00N 56°02' E 016°40'612.2
2018-Feb-19 09:30N 55°59' E 016°30'612.2
2018-Feb-19 09:00N 55°56' E 016°21'612.2
2018-Feb-19 08:30N 55°53' E 016°12'612.2
2018-Feb-19 08:00N 55°50' E 016°02'612.2
2018-Feb-19 07:30N 55°47' E 015°53'612.3
2018-Feb-19 07:00N 55°44' E 015°43'612.0
2018-Feb-19 06:30N 55°41' E 015°34'612.0
2018-Feb-19 06:00N 55°38' E 015°25'612.0
2018-Feb-19 05:30N 55°35' E 015°16'611.9
2018-Feb-19 04:59N 55°32' E 015°06'611.9
2018-Feb-19 04:27N 55°28' E 014°57'511.9
2018-Feb-19 04:00N 55°26' E 014°49'611.8
2018-Feb-19 03:30N 55°23' E 014°40'611.8
2018-Feb-19 03:00N 55°18' E 014°33'611.8
2018-Feb-19 02:30N 55°14' E 014°26'611.9
2018-Feb-19 02:00N 55°09' E 014°19'611.9
2018-Feb-19 01:30N 55°05' E 014°12'811.9
2018-Feb-19 00:49N 55°00' E 014°00'511.8
2018-Feb-19 00:23N 54°58' E 013°53'4311.8
2018-Feb-18 20:46N 54°44' E 012°42'311.6
2018-Feb-18 20:29N 54°42' E 012°38'611.7
2018-Feb-18 20:00N 54°39' E 012°29'711.5
2018-Feb-18 19:21N 54°35' E 012°19'411.5
2018-Feb-18 19:00N 54°31' E 012°16'1810.1
2018-Feb-18 17:12N 54°25' E 011°47'311.9
2018-Feb-18 16:58N 54°26' E 011°42'511.8
2018-Feb-18 16:30N 54°28' E 011°34'611.5
2018-Feb-18 16:00N 54°31' E 011°25'611.3
2018-Feb-18 15:30N 54°33' E 011°16'510.9
2018-Feb-18 15:00N 54°35' E 011°07'611.7
2018-Feb-18 14:30N 54°34' E 010°57'611.6
2018-Feb-18 14:00N 54°34' E 010°47'611.6
2018-Feb-18 13:30N 54°33' E 010°37'28 6.8
2018-Feb-18 09:24N 54°21' E 009°53'2 5.5
2018-Feb-18 09:00N 54°22' E 009°50'3 6.3
2018-Feb-18 08:30N 54°20' E 009°45'4 7.3
2018-Feb-18 08:00N 54°18' E 009°41'4 7.7
2018-Feb-18 07:30N 54°15' E 009°37'4 8.0
2018-Feb-18 07:00N 54°12' E 009°32'4 8.5
2018-Feb-18 06:30N 54°10' E 009°26'4 8.2
2018-Feb-18 06:00N 54°08' E 009°20'4 8.5
2018-Feb-18 05:30N 54°04' E 009°19'4 7.8
2018-Feb-18 05:00N 53°60' E 009°17'4 7.4
2018-Feb-18 04:30N 53°57' E 009°14'0 0.0
2018-Feb-18 04:00N 53°57' E 009°14'0 0.0
2018-Feb-18 03:30N 53°57' E 009°14'1 2.7
2018-Feb-18 03:00N 53°56' E 009°12'3 5.8
2018-Feb-18 02:30N 53°54' E 009°09'0 0.0
2018-Feb-18 02:00N 53°54' E 009°09'0 0.0
2018-Feb-18 01:30N 53°54' E 009°09'1 2.3
2018-Feb-18 01:00N 53°53' E 009°07'1 2.6
2018-Feb-18 00:30N 53°53' E 009°05'1 1.1
2018-Feb-18 00:00N 53°53' E 009°04'0 0.4
2018-Feb-17 23:30N 53°53' E 009°04'3 6.4
2018-Feb-17 23:00N 53°51' E 008°60'612.4
2018-Feb-17 22:30N 53°50' E 008°49'611.4
2018-Feb-17 22:00N 53°54' E 008°42'611.7
2018-Feb-17 21:30N 53°58' E 008°34'611.6
2018-Feb-17 21:00N 53°59' E 008°25'611.5
2018-Feb-17 20:30N 53°59' E 008°15'611.3
2018-Feb-17 20:00N 53°59' E 008°05'611.0
2018-Feb-17 19:30N 53°56' E 007°57'4 7.4
2018-Feb-17 18:54N 53°52' E 007°55'410.0
2018-Feb-17 18:30N 53°51' E 008°01'611.1
2018-Feb-17 17:59N 53°48' E 008°09'511.0
2018-Feb-17 17:30N 53°44' E 008°15'611.5
2018-Feb-17 17:00N 53°40' E 008°23'5 9.4
2018-Feb-17 16:30N 53°37' E 008°29'5 9.4
2018-Feb-17 16:00N 53°33' E 008°33'2 3.1
2018-Feb-17 15:30N 53°32' E 008°35'0 0.9
2018-Feb-17 15:00N 53°31' E 008°34'0 0.0
2018-Feb-17 14:30N 53°31' E 008°34'0 0.0
2018-Feb-17 14:01N 53°31' E 008°34'0 0.0
2018-Feb-17 13:30N 53°31' E 008°34'0 0.0
2018-Feb-17 13:00N 53°31' E 008°34'0 0.0
2018-Feb-17 12:31N 53°31' E 008°34'0 0.0
2018-Feb-17 12:01N 53°31' E 008°34'0 0.0
2018-Feb-17 11:31N 53°31' E 008°34'0 0.0
2018-Feb-17 10:57N 53°31' E 008°34'0 0.0
2018-Feb-17 10:30N 53°31' E 008°34'0 0.0
2018-Feb-17 10:00N 53°31' E 008°34'0 0.0
2018-Feb-17 09:30N 53°31' E 008°34'0 0.0
2018-Feb-17 09:00N 53°31' E 008°34'0 0.0
2018-Feb-17 08:30N 53°31' E 008°34'0 0.0
2018-Feb-17 08:00N 53°31' E 008°34'0 0.0
2018-Feb-17 07:30N 53°31' E 008°34'0 0.0
2018-Feb-17 07:00N 53°31' E 008°34'0 0.0
2018-Feb-17 06:30N 53°31' E 008°34'0 0.0
2018-Feb-17 06:00N 53°31' E 008°34'0 0.0
2018-Feb-17 05:30N 53°31' E 008°34'0 0.0
2018-Feb-17 05:00N 53°31' E 008°34'0 0.0
2018-Feb-17 04:30N 53°31' E 008°34'0 0.0
2018-Feb-17 04:00N 53°31' E 008°34'0 0.0
2018-Feb-17 03:30N 53°31' E 008°34'0 0.0
2018-Feb-17 03:01N 53°31' E 008°34'0 0.0
2018-Feb-17 02:30N 53°31' E 008°34'0 0.0
2018-Feb-17 02:00N 53°31' E 008°34'0 0.0
2018-Feb-17 01:30N 53°31' E 008°34'0 0.0
2018-Feb-17 01:00N 53°31' E 008°34'0 0.0
2018-Feb-17 00:30N 53°31' E 008°34'0 0.0
2018-Feb-17 00:00N 53°31' E 008°34'0 0.0
2018-Feb-16 23:30N 53°31' E 008°34'0 0.0
2018-Feb-16 23:00N 53°31' E 008°34'0 0.0
2018-Feb-16 22:30N 53°31' E 008°34'0 0.0
2018-Feb-16 22:00N 53°31' E 008°34'0 0.0
2018-Feb-16 21:30N 53°31' E 008°34'0 0.0
2018-Feb-16 21:00N 53°31' E 008°34'0 0.0
2018-Feb-16 20:31N 53°31' E 008°34'0 0.0
2018-Feb-16 20:00N 53°31' E 008°34'0 0.0
2018-Feb-16 19:30N 53°31' E 008°34'0 0.0
2018-Feb-16 19:00N 53°31' E 008°34'0 0.0
2018-Feb-16 18:30N 53°31' E 008°34'0 0.0
2018-Feb-16 18:00N 53°31' E 008°34'0 0.0
2018-Feb-16 17:30N 53°31' E 008°34'0 0.0
2018-Feb-16 17:00N 53°31' E 008°34'0 0.0
2018-Feb-16 16:30N 53°31' E 008°34'0 0.0
2018-Feb-16 16:00N 53°31' E 008°34'0 0.0
2018-Feb-16 15:30N 53°31' E 008°34'0 0.0
2018-Feb-16 15:00N 53°31' E 008°34'0 0.0
2018-Feb-16 14:30N 53°31' E 008°34'0 0.0
2018-Feb-16 14:00N 53°31' E 008°34'0 0.0
2018-Feb-16 13:30N 53°31' E 008°34'0 0.0
2018-Feb-16 13:00N 53°31' E 008°34'0 0.0
2018-Feb-16 12:30N 53°31' E 008°34'0 0.0
2018-Feb-16 12:00N 53°31' E 008°34'0 0.0
2018-Feb-16 11:30N 53°31' E 008°34'0 0.0
2018-Feb-16 11:00N 53°31' E 008°34'0 0.0
2018-Feb-16 10:30N 53°31' E 008°34'0 0.0
2018-Feb-16 10:00N 53°31' E 008°34'0 0.0
2018-Feb-16 09:30N 53°31' E 008°34'0 0.0
2018-Feb-16 09:00N 53°31' E 008°34'0 0.0
2018-Feb-16 08:30N 53°31' E 008°34'0 0.0
2018-Feb-16 08:00N 53°31' E 008°34'0 0.0
2018-Feb-16 07:30N 53°31' E 008°34'0 0.0
2018-Feb-16 07:00N 53°31' E 008°34'0 0.0
2018-Feb-16 06:30N 53°31' E 008°34'0 0.0
2018-Feb-16 06:00N 53°31' E 008°34'0 0.0
2018-Feb-16 05:30N 53°31' E 008°34'0 0.0
2018-Feb-16 05:00N 53°31' E 008°34'0 0.0
2018-Feb-16 04:30N 53°31' E 008°34'0 0.0
2018-Feb-16 04:00N 53°31' E 008°34'0 0.0
2018-Feb-16 03:30N 53°31' E 008°34'0 0.0
2018-Feb-16 03:00N 53°31' E 008°34'0 0.0
2018-Feb-16 02:30N 53°31' E 008°34'0 0.0
2018-Feb-16 02:00N 53°31' E 008°34'0 0.0
2018-Feb-16 01:30N 53°31' E 008°34'0 0.0
2018-Feb-16 01:00N 53°31' E 008°34'0 0.0
2018-Feb-16 00:30N 53°31' E 008°34'0 0.0
2018-Feb-16 00:00N 53°31' E 008°34'0 0.0
2018-Feb-15 23:30N 53°31' E 008°34'0 0.0
2018-Feb-15 23:00N 53°31' E 008°34'0 0.0
2018-Feb-15 22:30N 53°31' E 008°34'0 0.0
2018-Feb-15 22:00N 53°31' E 008°34'0 0.0
2018-Feb-15 21:30N 53°31' E 008°34'0 0.0
2018-Feb-15 21:00N 53°31' E 008°34'0 0.0
2018-Feb-15 20:30N 53°31' E 008°34'0 0.0
2018-Feb-15 20:00N 53°31' E 008°34'0 0.0
2018-Feb-15 19:30N 53°31' E 008°34'0 0.0
2018-Feb-15 19:00N 53°31' E 008°34'0 0.0
2018-Feb-15 18:30N 53°31' E 008°34'0 0.0
2018-Feb-15 18:00N 53°31' E 008°34'0 0.0
2018-Feb-15 17:30N 53°31' E 008°34'0 0.0
2018-Feb-15 17:00N 53°31' E 008°34'0 0.0
2018-Feb-15 16:30N 53°31' E 008°34'0 0.0
2018-Feb-15 16:00N 53°31' E 008°34'0 0.0
2018-Feb-15 15:30N 53°31' E 008°34'0 0.0
2018-Feb-15 15:00N 53°31' E 008°34'0 0.0
2018-Feb-15 14:30N 53°31' E 008°34'0 0.0
2018-Feb-15 14:00N 53°31' E 008°34'0 0.0
2018-Feb-15 13:30N 53°31' E 008°34'0 0.0
2018-Feb-15 13:00N 53°31' E 008°34'0 0.0
2018-Feb-15 12:30N 53°31' E 008°34'0 0.0
2018-Feb-15 12:00N 53°31' E 008°34'0 0.0
2018-Feb-15 11:30N 53°31' E 008°34'0 0.0
2018-Feb-15 11:00N 53°31' E 008°34'0 0.0
2018-Feb-15 10:30N 53°31' E 008°34'0 0.0
2018-Feb-15 09:57N 53°31' E 008°34'0 0.0
2018-Feb-15 09:30N 53°31' E 008°34'0 0.0
2018-Feb-15 09:00N 53°31' E 008°34'0 0.0
2018-Feb-15 08:30N 53°31' E 008°34'0 0.0
2018-Feb-15 07:57N 53°31' E 008°34'0 0.0
2018-Feb-15 07:27N 53°31' E 008°34'0 0.0
2018-Feb-15 07:00N 53°31' E 008°34'0 0.0
2018-Feb-15 06:30N 53°31' E 008°34'0 0.0
2018-Feb-15 06:00N 53°31' E 008°34'0 0.0
2018-Feb-15 05:30N 53°31' E 008°34'0 0.0
2018-Feb-15 05:00N 53°31' E 008°34'0 0.0
2018-Feb-15 04:30N 53°31' E 008°34'0 0.0
2018-Feb-15 04:00N 53°31' E 008°34'0 0.0
2018-Feb-15 03:30N 53°31' E 008°34'0 0.0
2018-Feb-15 03:00N 53°31' E 008°34'0 0.0
2018-Feb-15 02:30N 53°31' E 008°34'0 0.0
2018-Feb-15 02:00N 53°31' E 008°34'0 0.0
2018-Feb-15 01:30N 53°31' E 008°34'0 0.0
2018-Feb-15 01:00N 53°31' E 008°34'0 0.0
2018-Feb-15 00:30N 53°31' E 008°34'0 0.0
2018-Feb-15 00:00N 53°31' E 008°34'0 0.0
2018-Feb-14 23:30N 53°31' E 008°34'0 0.0
2018-Feb-14 23:00N 53°31' E 008°34'0 0.0
2018-Feb-14 22:30N 53°31' E 008°34'0 0.0
2018-Feb-14 22:00N 53°31' E 008°34'0 0.0
2018-Feb-14 21:27N 53°31' E 008°34'0 0.0
2018-Feb-14 21:00N 53°31' E 008°34'0 0.0
2018-Feb-14 20:30N 53°31' E 008°34'0 0.0
2018-Feb-14 20:00N 53°31' E 008°34'0 0.0
2018-Feb-14 19:27N 53°31' E 008°34'0 0.0
2018-Feb-14 19:00N 53°31' E 008°34'0 0.0
2018-Feb-14 18:30N 53°31' E 008°34'0 0.0
2018-Feb-14 18:00N 53°31' E 008°34'0 0.0
2018-Feb-14 17:30N 53°31' E 008°34'0 0.0
2018-Feb-14 17:00N 53°31' E 008°34'0 0.0
2018-Feb-14 16:30N 53°31' E 008°34'0 0.0
2018-Feb-14 16:00N 53°31' E 008°34'0 0.0
2018-Feb-14 15:30N 53°31' E 008°34'0 0.0
2018-Feb-14 15:00N 53°31' E 008°34'0 0.0
2018-Feb-14 14:30N 53°31' E 008°34'0 0.0
2018-Feb-14 14:00N 53°31' E 008°34'0 0.0
2018-Feb-14 13:30N 53°31' E 008°34'0 0.0
2018-Feb-14 13:00N 53°31' E 008°34'0 0.0
2018-Feb-14 12:30N 53°31' E 008°34'0 0.0
2018-Feb-14 11:57N 53°31' E 008°34'0 0.0
2018-Feb-14 11:30N 53°31' E 008°34'0 0.0
2018-Feb-14 11:00N 53°31' E 008°34'0 0.0
2018-Feb-14 10:30N 53°31' E 008°34'0 0.0
2018-Feb-14 10:00N 53°31' E 008°34'0 0.0
2018-Feb-14 09:30N 53°31' E 008°34'0 0.0
2018-Feb-14 09:00N 53°31' E 008°34'0 0.0
2018-Feb-14 08:30N 53°31' E 008°34'0 0.0
2018-Feb-14 08:00N 53°31' E 008°34'0 0.0
2018-Feb-14 07:30N 53°31' E 008°34'0 0.0
2018-Feb-14 07:00N 53°31' E 008°34'0 0.0
2018-Feb-14 06:30N 53°31' E 008°34'0 0.0
2018-Feb-14 06:00N 53°31' E 008°34'0 0.0
2018-Feb-14 05:30N 53°31' E 008°34'0 0.0
2018-Feb-14 05:00N 53°31' E 008°34'0 0.0
2018-Feb-14 04:30N 53°31' E 008°34'0 0.0
2018-Feb-14 04:00N 53°31' E 008°34'0 0.0
2018-Feb-14 03:30N 53°31' E 008°34'0 0.0
2018-Feb-14 03:00N 53°31' E 008°34'0 0.0
2018-Feb-14 02:30N 53°31' E 008°34'0 0.0
2018-Feb-14 02:00N 53°31' E 008°34'0 0.0
2018-Feb-14 01:30N 53°31' E 008°34'0 0.0
2018-Feb-14 01:00N 53°31' E 008°34'0 0.0
2018-Feb-14 00:30N 53°31' E 008°34'0 0.0
2018-Feb-14 00:00N 53°31' E 008°34'0 0.0
2018-Feb-13 23:30N 53°31' E 008°34'0 0.0
2018-Feb-13 23:00N 53°31' E 008°34'0 0.0
2018-Feb-13 22:30N 53°31' E 008°34'0 0.0
2018-Feb-13 22:00N 53°31' E 008°34'0 0.0
2018-Feb-13 21:30N 53°31' E 008°34'0 0.0
2018-Feb-13 21:00N 53°31' E 008°34'0 0.0
2018-Feb-13 20:30N 53°31' E 008°34'0 0.0
2018-Feb-13 20:00N 53°31' E 008°34'0 0.0
2018-Feb-13 19:30N 53°31' E 008°34'0 0.0
2018-Feb-13 19:00N 53°31' E 008°34'0 0.0
2018-Feb-13 18:30N 53°31' E 008°34'0 0.0
2018-Feb-13 18:00N 53°31' E 008°34'0 0.0
2018-Feb-13 17:30N 53°31' E 008°34'0 0.0
2018-Feb-13 17:00N 53°31' E 008°34'0 0.0
2018-Feb-13 16:30N 53°31' E 008°34'0 0.0
2018-Feb-13 16:00N 53°31' E 008°34'0 0.0
2018-Feb-13 15:30N 53°31' E 008°34'0 0.0
2018-Feb-13 15:00N 53°31' E 008°34'0 0.0
2018-Feb-13 14:30N 53°31' E 008°34'0 0.0
2018-Feb-13 14:00N 53°31' E 008°34'0 0.0
2018-Feb-13 13:30N 53°31' E 008°34'0 0.0
2018-Feb-13 13:00N 53°31' E 008°34'0 0.0
2018-Feb-13 12:30N 53°31' E 008°34'0 0.0
2018-Feb-13 12:00N 53°31' E 008°34'0 0.0
2018-Feb-13 11:30N 53°31' E 008°34'0 0.0
2018-Feb-13 11:00N 53°31' E 008°34'0 0.0
2018-Feb-13 10:30N 53°31' E 008°34'0 0.0
2018-Feb-13 10:00N 53°31' E 008°34'0 0.0
2018-Feb-13 09:30N 53°31' E 008°34'0 0.0
2018-Feb-13 09:00N 53°31' E 008°34'0 0.0
2018-Feb-13 08:30N 53°31' E 008°34'0 0.0
2018-Feb-13 08:00N 53°31' E 008°34'0 0.0
2018-Feb-13 07:30N 53°31' E 008°34'0 0.0
2018-Feb-13 07:00N 53°31' E 008°34'0 0.0
2018-Feb-13 06:30N 53°31' E 008°34'0 0.0
2018-Feb-13 06:00N 53°31' E 008°34'0 0.0
2018-Feb-13 05:30N 53°31' E 008°34'0 0.0
2018-Feb-13 05:00N 53°31' E 008°34'0 0.0
2018-Feb-13 04:30N 53°31' E 008°34'0 0.0
2018-Feb-13 04:00N 53°31' E 008°34'0 0.0
2018-Feb-13 03:30N 53°31' E 008°34'0 0.0
2018-Feb-13 03:00N 53°31' E 008°34'0 0.0
2018-Feb-13 02:30N 53°31' E 008°34'0 0.0
2018-Feb-13 02:00N 53°31' E 008°34'0 0.0
2018-Feb-13 01:30N 53°31' E 008°34'0 0.0
2018-Feb-13 01:00N 53°31' E 008°34'0 0.0
2018-Feb-13 00:30N 53°31' E 008°34'0 0.0
2018-Feb-13 00:00N 53°31' E 008°34'0 0.0
2018-Feb-12 23:30N 53°31' E 008°34'0 0.0
2018-Feb-12 23:00N 53°31' E 008°34'0 0.0
2018-Feb-12 22:30N 53°31' E 008°34'0 0.0
2018-Feb-12 22:00N 53°31' E 008°34'0 0.0
2018-Feb-12 21:30N 53°31' E 008°34'0 0.0
2018-Feb-12 21:00N 53°31' E 008°34'0 0.0
2018-Feb-12 20:30N 53°31' E 008°34'0 0.0
2018-Feb-12 20:00N 53°31' E 008°34'0 0.0
2018-Feb-12 19:30N 53°31' E 008°34'0 0.0
2018-Feb-12 19:00N 53°31' E 008°34'0 0.0
2018-Feb-12 18:30N 53°31' E 008°34'0 0.0
2018-Feb-12 18:00N 53°31' E 008°34'0 0.0
2018-Feb-12 17:30N 53°31' E 008°34'0 0.0
2018-Feb-12 17:00N 53°31' E 008°34'0 0.0
2018-Feb-12 16:30N 53°31' E 008°34'0 0.0
2018-Feb-12 16:00N 53°31' E 008°34'0 0.0
2018-Feb-12 15:30N 53°31' E 008°34'0 0.0
2018-Feb-12 15:00N 53°31' E 008°34'0 0.0
2018-Feb-12 14:30N 53°31' E 008°34'0 0.0
2018-Feb-12 14:00N 53°31' E 008°34'0 0.0
2018-Feb-12 13:30N 53°31' E 008°34'0 0.0
2018-Feb-12 12:54N 53°31' E 008°34'0 0.0
2018-Feb-12 12:30N 53°31' E 008°34'0 0.0
2018-Feb-12 12:00N 53°31' E 008°34'0 0.0
2018-Feb-12 11:30N 53°31' E 008°34'0 0.0
2018-Feb-12 11:00N 53°31' E 008°34'0 0.0
2018-Feb-12 10:30N 53°31' E 008°34'0 0.0
2018-Feb-12 10:00N 53°31' E 008°34'0 0.0
2018-Feb-12 09:30N 53°31' E 008°34'0 0.0
2018-Feb-12 09:00N 53°31' E 008°34'0 0.0
2018-Feb-12 08:30N 53°31' E 008°34'0 0.0
2018-Feb-12 08:00N 53°31' E 008°34'0 0.0
2018-Feb-12 07:30N 53°31' E 008°34'0 0.0
2018-Feb-12 07:00N 53°31' E 008°34'0 0.0
2018-Feb-12 06:30N 53°31' E 008°34'0 0.0
2018-Feb-12 06:00N 53°31' E 008°34'0 0.0
2018-Feb-12 05:30N 53°31' E 008°34'0 0.0
2018-Feb-12 05:00N 53°31' E 008°34'0 0.0
2018-Feb-12 04:30N 53°31' E 008°34'0 0.0
2018-Feb-12 04:00N 53°31' E 008°34'0 0.0
2018-Feb-12 03:30N 53°31' E 008°34'0 0.0
2018-Feb-12 03:00N 53°31' E 008°34'0 0.0
2018-Feb-12 02:30N 53°31' E 008°34'0 0.0
2018-Feb-12 02:00N 53°31' E 008°34'0 0.0
2018-Feb-12 01:30N 53°31' E 008°34'0 0.0
2018-Feb-12 01:00N 53°31' E 008°34'0 0.0
2018-Feb-12 00:27N 53°31' E 008°34'0 0.0
2018-Feb-12 00:00N 53°31' E 008°34'0 0.0
2018-Feb-11 23:30N 53°31' E 008°34'0 0.0
2018-Feb-11 23:00N 53°31' E 008°34'0 0.0
2018-Feb-11 22:30N 53°31' E 008°34'0 0.0
2018-Feb-11 21:57N 53°31' E 008°34'0 0.0
2018-Feb-11 21:30N 53°31' E 008°34'0 0.0
2018-Feb-11 21:00N 53°31' E 008°34'0 0.0
2018-Feb-11 20:30N 53°31' E 008°34'0 0.0
2018-Feb-11 20:00N 53°31' E 008°34'0 0.0
2018-Feb-11 19:30N 53°31' E 008°34'0 0.0
2018-Feb-11 19:00N 53°31' E 008°34'0 0.0
2018-Feb-11 18:30N 53°31' E 008°34'0 0.0
2018-Feb-11 18:00N 53°31' E 008°34'0 0.0
2018-Feb-11 17:30N 53°31' E 008°34'0 0.0
2018-Feb-11 17:00N 53°31' E 008°34'0 0.0
2018-Feb-11 16:30N 53°31' E 008°34'0 0.0
2018-Feb-11 16:00N 53°31' E 008°34'0 0.0
2018-Feb-11 15:30N 53°31' E 008°34'0 0.0
2018-Feb-11 15:00N 53°31' E 008°34'0 0.0
2018-Feb-11 14:30N 53°31' E 008°34'0 0.0
2018-Feb-11 14:00N 53°31' E 008°34'0 0.0
2018-Feb-11 13:30N 53°31' E 008°34'0 0.0
2018-Feb-11 12:56N 53°31' E 008°34'0 0.0
2018-Feb-11 12:30N 53°31' E 008°34'0 0.0
2018-Feb-11 12:00N 53°31' E 008°34'0 0.0
2018-Feb-11 11:30N 53°31' E 008°34'0 0.0
2018-Feb-11 11:00N 53°31' E 008°34'0 0.0
2018-Feb-11 10:30N 53°31' E 008°34'0 0.0
2018-Feb-11 10:00N 53°31' E 008°34'0 0.0
2018-Feb-11 09:29N 53°31' E 008°34'0 0.0
2018-Feb-11 09:00N 53°31' E 008°34'0 0.0
2018-Feb-11 08:30N 53°31' E 008°34'0 0.0
2018-Feb-11 07:59N 53°31' E 008°34'0 0.0
2018-Feb-11 07:30N 53°31' E 008°34'0 0.0
2018-Feb-11 07:00N 53°31' E 008°34'0 0.0
2018-Feb-11 06:30N 53°31' E 008°34'0 0.0
2018-Feb-11 06:00N 53°31' E 008°34'0 0.0
2018-Feb-11 05:30N 53°31' E 008°34'0 0.0
2018-Feb-11 05:00N 53°31' E 008°34'0 0.0
2018-Feb-11 04:29N 53°31' E 008°34'0 0.0
2018-Feb-11 04:00N 53°31' E 008°34'0 0.0
2018-Feb-11 03:29N 53°31' E 008°34'0 0.0
2018-Feb-11 03:00N 53°31' E 008°34'0 0.0
2018-Feb-11 02:29N 53°31' E 008°34'0 0.0
2018-Feb-11 02:00N 53°31' E 008°34'0 0.0
2018-Feb-11 01:30N 53°31' E 008°34'0 0.0
2018-Feb-11 01:00N 53°31' E 008°34'0 0.0
2018-Feb-11 00:30N 53°31' E 008°34'0 0.0
2018-Feb-10 23:59N 53°31' E 008°34'0 0.0
2018-Feb-10 23:30N 53°31' E 008°34'0 0.0
2018-Feb-10 23:00N 53°31' E 008°34'0 0.0
2018-Feb-10 22:29N 53°31' E 008°34'0 0.0
2018-Feb-10 22:00N 53°31' E 008°34'0 0.0
2018-Feb-10 21:29N 53°31' E 008°34'0 0.0
2018-Feb-10 20:59N 53°31' E 008°34'0 0.0
2018-Feb-10 20:30N 53°31' E 008°34'0 0.0
2018-Feb-10 19:59N 53°31' E 008°34'0 0.0
2018-Feb-10 19:29N 53°31' E 008°34'0 0.0
2018-Feb-10 18:59N 53°31' E 008°34'0 0.0
2018-Feb-10 18:30N 53°31' E 008°34'0 0.0
2018-Feb-10 17:59N 53°31' E 008°34'0 0.0
2018-Feb-10 17:29N 53°31' E 008°34'0 0.0
2018-Feb-10 16:59N 53°31' E 008°34'0 0.0
2018-Feb-10 16:30N 53°31' E 008°34'0 0.0
2018-Feb-10 15:59N 53°31' E 008°34'0 0.0
2018-Feb-10 15:29N 53°31' E 008°34'0 0.0
2018-Feb-10 14:59N 53°31' E 008°34'0 0.0
2018-Feb-10 14:29N 53°31' E 008°34'0 0.0
2018-Feb-10 13:59N 53°31' E 008°34'0 0.0
2018-Feb-10 13:30N 53°31' E 008°34'0 0.0
2018-Feb-10 12:59N 53°31' E 008°34'0 0.0
2018-Feb-10 12:29N 53°31' E 008°34'0 0.0
2018-Feb-10 11:59N 53°31' E 008°34'0 0.0
2018-Feb-10 11:29N 53°31' E 008°34'0 0.0
2018-Feb-10 10:59N 53°31' E 008°34'0 0.0
2018-Feb-10 10:29N 53°31' E 008°34'0 0.0
2018-Feb-10 10:00N 53°31' E 008°34'0 0.0
2018-Feb-10 09:29N 53°31' E 008°34'0 0.0
2018-Feb-10 08:59N 53°31' E 008°34'0 0.0
2018-Feb-10 08:29N 53°31' E 008°34'0 0.0
2018-Feb-10 07:59N 53°31' E 008°34'0 0.0
2018-Feb-10 07:29N 53°31' E 008°34'0 0.0
2018-Feb-10 06:59N 53°31' E 008°34'0 0.0
2018-Feb-10 06:29N 53°31' E 008°34'0 0.0
2018-Feb-10 05:59N 53°31' E 008°34'0 0.0
2018-Feb-10 05:29N 53°31' E 008°34'0 0.0
2018-Feb-10 04:59N 53°31' E 008°34'0 0.0
2018-Feb-10 04:29N 53°31' E 008°34'0 0.0
2018-Feb-10 03:59N 53°31' E 008°34'0 0.0
2018-Feb-10 03:29N 53°31' E 008°34'0 0.0
2018-Feb-10 03:00N 53°31' E 008°34'0 0.0
2018-Feb-10 02:29N 53°31' E 008°34'0 0.0
2018-Feb-10 01:59N 53°31' E 008°34'0 0.0
2018-Feb-10 01:29N 53°31' E 008°34'0 0.0
2018-Feb-10 00:59N 53°31' E 008°34'0 0.0
2018-Feb-10 00:29N 53°31' E 008°34'0 0.0
2018-Feb-09 23:59N 53°31' E 008°34'0 0.0
2018-Feb-09 23:29N 53°31' E 008°34'0 0.0
2018-Feb-09 22:59N 53°31' E 008°34'0 0.0
2018-Feb-09 22:44N 53°31' E 008°34'  
Track history (hours):
 
Tides and Currents Weather Stations Pressure Air Temp Water Temp Dewpoint Dewpoint Depression Visibility Wind Speed Wind Dir Waves Ship Positions

Fehn Light

Last reported at 2018-Feb-19 10:35 UTC. Time now 2018-Feb-20 02:02 UTC.
Position N 56°07' E 016°49'.

Length 107 m; draft 5.4 m.

Type: Cargo ship. MMSI: 305653000.

Date/timePositionNaut miles runAvg speedWind from/ knotsBaromVisibWave heightAir tempDewpointWater temp
2018-Feb-19 10:35N 56°07' E 016°49'112.3
2018-Feb-19 10:30N 56°06' E 016°48'612.1
2018-Feb-19 10:00N 56°02' E 016°40'612.2
2018-Feb-19 09:30N 55°59' E 016°30'612.2
2018-Feb-19 09:00N 55°56' E 016°21'612.2
2018-Feb-19 08:30N 55°53' E 016°12'612.2
2018-Feb-19 08:00N 55°50' E 016°02'612.2
2018-Feb-19 07:30N 55°47' E 015°53'612.3
2018-Feb-19 07:00N 55°44' E 015°43'612.0
2018-Feb-19 06:30N 55°41' E 015°34'612.0
2018-Feb-19 06:00N 55°38' E 015°25'612.0
2018-Feb-19 05:30N 55°35' E 015°16'611.9
2018-Feb-19 04:59N 55°32' E 015°06'611.9
2018-Feb-19 04:27N 55°28' E 014°57'511.9
2018-Feb-19 04:00N 55°26' E 014°49'611.8
2018-Feb-19 03:30N 55°23' E 014°40'611.8
2018-Feb-19 03:00N 55°18' E 014°33'611.8
2018-Feb-19 02:30N 55°14' E 014°26'611.9
2018-Feb-19 02:00N 55°09' E 014°19'611.9
2018-Feb-19 01:30N 55°05' E 014°12'811.9
2018-Feb-19 00:49N 55°00' E 014°00'511.8
2018-Feb-19 00:23N 54°58' E 013°53'4311.8
2018-Feb-18 20:46N 54°44' E 012°42'311.6
2018-Feb-18 20:29N 54°42' E 012°38'611.7
2018-Feb-18 20:00N 54°39' E 012°29'711.5
2018-Feb-18 19:21N 54°35' E 012°19'411.5
2018-Feb-18 19:00N 54°31' E 012°16'1810.1
2018-Feb-18 17:12N 54°25' E 011°47'311.9
2018-Feb-18 16:58N 54°26' E 011°42'511.8
2018-Feb-18 16:30N 54°28' E 011°34'611.5
2018-Feb-18 16:00N 54°31' E 011°25'611.3
2018-Feb-18 15:30N 54°33' E 011°16'510.9
2018-Feb-18 15:00N 54°35' E 011°07'611.7
2018-Feb-18 14:30N 54°34' E 010°57'611.6
2018-Feb-18 14:00N 54°34' E 010°47'611.6
2018-Feb-18 13:30N 54°33' E 010°37'28 6.8
2018-Feb-18 09:24N 54°21' E 009°53'2 5.5
2018-Feb-18 09:00N 54°22' E 009°50'3 6.3
2018-Feb-18 08:30N 54°20' E 009°45'4 7.3
2018-Feb-18 08:00N 54°18' E 009°41'4 7.7
2018-Feb-18 07:30N 54°15' E 009°37'4 8.0
2018-Feb-18 07:00N 54°12' E 009°32'4 8.5
2018-Feb-18 06:30N 54°10' E 009°26'4 8.2
2018-Feb-18 06:00N 54°08' E 009°20'4 8.5
2018-Feb-18 05:30N 54°04' E 009°19'4 7.8
2018-Feb-18 05:00N 53°60' E 009°17'4 7.4
2018-Feb-18 04:30N 53°57' E 009°14'0 0.0
2018-Feb-18 04:00N 53°57' E 009°14'0 0.0
2018-Feb-18 03:30N 53°57' E 009°14'1 2.7
2018-Feb-18 03:00N 53°56' E 009°12'3 5.8
2018-Feb-18 02:30N 53°54' E 009°09'0 0.0
2018-Feb-18 02:00N 53°54' E 009°09'0 0.0
2018-Feb-18 01:30N 53°54' E 009°09'1 2.3
2018-Feb-18 01:00N 53°53' E 009°07'1 2.6
2018-Feb-18 00:30N 53°53' E 009°05'1 1.1
2018-Feb-18 00:00N 53°53' E 009°04'0 0.4
2018-Feb-17 23:30N 53°53' E 009°04'3 6.4
2018-Feb-17 23:00N 53°51' E 008°60'612.4
2018-Feb-17 22:30N 53°50' E 008°49'611.4
2018-Feb-17 22:00N 53°54' E 008°42'611.7
2018-Feb-17 21:30N 53°58' E 008°34'611.6
2018-Feb-17 21:00N 53°59' E 008°25'611.5
2018-Feb-17 20:30N 53°59' E 008°15'611.3
2018-Feb-17 20:00N 53°59' E 008°05'611.0
2018-Feb-17 19:30N 53°56' E 007°57'4 7.4
2018-Feb-17 18:54N 53°52' E 007°55'410.0
2018-Feb-17 18:30N 53°51' E 008°01'611.1
2018-Feb-17 17:59N 53°48' E 008°09'511.0
2018-Feb-17 17:30N 53°44' E 008°15'611.5
2018-Feb-17 17:00N 53°40' E 008°23'5 9.4
2018-Feb-17 16:30N 53°37' E 008°29'5 9.4
2018-Feb-17 16:00N 53°33' E 008°33'2 3.1
2018-Feb-17 15:30N 53°32' E 008°35'0 0.9
2018-Feb-17 15:00N 53°31' E 008°34'0 0.0
2018-Feb-17 14:30N 53°31' E 008°34'0 0.0
2018-Feb-17 14:01N 53°31' E 008°34'0 0.0
2018-Feb-17 13:30N 53°31' E 008°34'0 0.0
2018-Feb-17 13:00N 53°31' E 008°34'0 0.0
2018-Feb-17 12:31N 53°31' E 008°34'0 0.0
2018-Feb-17 12:01N 53°31' E 008°34'0 0.0
2018-Feb-17 11:31N 53°31' E 008°34'0 0.0
2018-Feb-17 10:57N 53°31' E 008°34'0 0.0
2018-Feb-17 10:30N 53°31' E 008°34'0 0.0
2018-Feb-17 10:00N 53°31' E 008°34'0 0.0
2018-Feb-17 09:30N 53°31' E 008°34'0 0.0
2018-Feb-17 09:00N 53°31' E 008°34'0 0.0
2018-Feb-17 08:30N 53°31' E 008°34'0 0.0
2018-Feb-17 08:00N 53°31' E 008°34'0 0.0
2018-Feb-17 07:30N 53°31' E 008°34'0 0.0
2018-Feb-17 07:00N 53°31' E 008°34'0 0.0
2018-Feb-17 06:30N 53°31' E 008°34'0 0.0
2018-Feb-17 06:00N 53°31' E 008°34'0 0.0
2018-Feb-17 05:30N 53°31' E 008°34'0 0.0
2018-Feb-17 05:00N 53°31' E 008°34'0 0.0
2018-Feb-17 04:30N 53°31' E 008°34'0 0.0
2018-Feb-17 04:00N 53°31' E 008°34'0 0.0
2018-Feb-17 03:30N 53°31' E 008°34'0 0.0
2018-Feb-17 03:01N 53°31' E 008°34'0 0.0
2018-Feb-17 02:30N 53°31' E 008°34'0 0.0
2018-Feb-17 02:00N 53°31' E 008°34'0 0.0
2018-Feb-17 01:30N 53°31' E 008°34'0 0.0
2018-Feb-17 01:00N 53°31' E 008°34'0 0.0
2018-Feb-17 00:30N 53°31' E 008°34'0 0.0
2018-Feb-17 00:00N 53°31' E 008°34'0 0.0
2018-Feb-16 23:30N 53°31' E 008°34'0 0.0
2018-Feb-16 23:00N 53°31' E 008°34'0 0.0
2018-Feb-16 22:30N 53°31' E 008°34'0 0.0
2018-Feb-16 22:00N 53°31' E 008°34'0 0.0
2018-Feb-16 21:30N 53°31' E 008°34'0 0.0
2018-Feb-16 21:00N 53°31' E 008°34'0 0.0
2018-Feb-16 20:31N 53°31' E 008°34'0 0.0
2018-Feb-16 20:00N 53°31' E 008°34'0 0.0
2018-Feb-16 19:30N 53°31' E 008°34'0 0.0
2018-Feb-16 19:00N 53°31' E 008°34'0 0.0
2018-Feb-16 18:30N 53°31' E 008°34'0 0.0
2018-Feb-16 18:00N 53°31' E 008°34'0 0.0
2018-Feb-16 17:30N 53°31' E 008°34'0 0.0
2018-Feb-16 17:00N 53°31' E 008°34'0 0.0
2018-Feb-16 16:30N 53°31' E 008°34'0 0.0
2018-Feb-16 16:00N 53°31' E 008°34'0 0.0
2018-Feb-16 15:30N 53°31' E 008°34'0 0.0
2018-Feb-16 15:00N 53°31' E 008°34'0 0.0
2018-Feb-16 14:30N 53°31' E 008°34'0 0.0
2018-Feb-16 14:00N 53°31' E 008°34'0 0.0
2018-Feb-16 13:30N 53°31' E 008°34'0 0.0
2018-Feb-16 13:00N 53°31' E 008°34'0 0.0
2018-Feb-16 12:30N 53°31' E 008°34'0 0.0
2018-Feb-16 12:00N 53°31' E 008°34'0 0.0
2018-Feb-16 11:30N 53°31' E 008°34'0 0.0
2018-Feb-16 11:00N 53°31' E 008°34'0 0.0
2018-Feb-16 10:30N 53°31' E 008°34'0 0.0
2018-Feb-16 10:00N 53°31' E 008°34'0 0.0
2018-Feb-16 09:30N 53°31' E 008°34'0 0.0
2018-Feb-16 09:00N 53°31' E 008°34'0 0.0
2018-Feb-16 08:30N 53°31' E 008°34'0 0.0
2018-Feb-16 08:00N 53°31' E 008°34'0 0.0
2018-Feb-16 07:30N 53°31' E 008°34'0 0.0
2018-Feb-16 07:00N 53°31' E 008°34'0 0.0
2018-Feb-16 06:30N 53°31' E 008°34'0 0.0
2018-Feb-16 06:00N 53°31' E 008°34'0 0.0
2018-Feb-16 05:30N 53°31' E 008°34'0 0.0
2018-Feb-16 05:00N 53°31' E 008°34'0 0.0
2018-Feb-16 04:30N 53°31' E 008°34'0 0.0
2018-Feb-16 04:00N 53°31' E 008°34'0 0.0
2018-Feb-16 03:30N 53°31' E 008°34'0 0.0
2018-Feb-16 03:00N 53°31' E 008°34'0 0.0
2018-Feb-16 02:30N 53°31' E 008°34'0 0.0
2018-Feb-16 02:00N 53°31' E 008°34'0 0.0
2018-Feb-16 01:30N 53°31' E 008°34'0 0.0
2018-Feb-16 01:00N 53°31' E 008°34'0 0.0
2018-Feb-16 00:30N 53°31' E 008°34'0 0.0
2018-Feb-16 00:00N 53°31' E 008°34'0 0.0
2018-Feb-15 23:30N 53°31' E 008°34'0 0.0
2018-Feb-15 23:00N 53°31' E 008°34'0 0.0
2018-Feb-15 22:30N 53°31' E 008°34'0 0.0
2018-Feb-15 22:00N 53°31' E 008°34'0 0.0
2018-Feb-15 21:30N 53°31' E 008°34'0 0.0
2018-Feb-15 21:00N 53°31' E 008°34'0 0.0
2018-Feb-15 20:30N 53°31' E 008°34'0 0.0
2018-Feb-15 20:00N 53°31' E 008°34'0 0.0
2018-Feb-15 19:30N 53°31' E 008°34'0 0.0
2018-Feb-15 19:00N 53°31' E 008°34'0 0.0
2018-Feb-15 18:30N 53°31' E 008°34'0 0.0
2018-Feb-15 18:00N 53°31' E 008°34'0 0.0
2018-Feb-15 17:30N 53°31' E 008°34'0 0.0
2018-Feb-15 17:00N 53°31' E 008°34'0 0.0
2018-Feb-15 16:30N 53°31' E 008°34'0 0.0
2018-Feb-15 16:00N 53°31' E 008°34'0 0.0
2018-Feb-15 15:30N 53°31' E 008°34'0 0.0
2018-Feb-15 15:00N 53°31' E 008°34'0 0.0
2018-Feb-15 14:30N 53°31' E 008°34'0 0.0
2018-Feb-15 14:00N 53°31' E 008°34'0 0.0
2018-Feb-15 13:30N 53°31' E 008°34'0 0.0
2018-Feb-15 13:00N 53°31' E 008°34'0 0.0
2018-Feb-15 12:30N 53°31' E 008°34'0 0.0
2018-Feb-15 12:00N 53°31' E 008°34'0 0.0
2018-Feb-15 11:30N 53°31' E 008°34'0 0.0
2018-Feb-15 11:00N 53°31' E 008°34'0 0.0
2018-Feb-15 10:30N 53°31' E 008°34'0 0.0
2018-Feb-15 09:57N 53°31' E 008°34'0 0.0
2018-Feb-15 09:30N 53°31' E 008°34'0 0.0
2018-Feb-15 09:00N 53°31' E 008°34'0 0.0
2018-Feb-15 08:30N 53°31' E 008°34'0 0.0
2018-Feb-15 07:57N 53°31' E 008°34'0 0.0
2018-Feb-15 07:27N 53°31' E 008°34'0 0.0
2018-Feb-15 07:00N 53°31' E 008°34'0 0.0
2018-Feb-15 06:30N 53°31' E 008°34'0 0.0
2018-Feb-15 06:00N 53°31' E 008°34'0 0.0
2018-Feb-15 05:30N 53°31' E 008°34'0 0.0
2018-Feb-15 05:00N 53°31' E 008°34'0 0.0
2018-Feb-15 04:30N 53°31' E 008°34'0 0.0
2018-Feb-15 04:00N 53°31' E 008°34'0 0.0
2018-Feb-15 03:30N 53°31' E 008°34'0 0.0
2018-Feb-15 03:00N 53°31' E 008°34'0 0.0
2018-Feb-15 02:30N 53°31' E 008°34'0 0.0
2018-Feb-15 02:00N 53°31' E 008°34'0 0.0
2018-Feb-15 01:30N 53°31' E 008°34'0 0.0
2018-Feb-15 01:00N 53°31' E 008°34'0 0.0
2018-Feb-15 00:30N 53°31' E 008°34'0 0.0
2018-Feb-15 00:00N 53°31' E 008°34'0 0.0
2018-Feb-14 23:30N 53°31' E 008°34'0 0.0
2018-Feb-14 23:00N 53°31' E 008°34'0 0.0
2018-Feb-14 22:30N 53°31' E 008°34'0 0.0
2018-Feb-14 22:00N 53°31' E 008°34'0 0.0
2018-Feb-14 21:27N 53°31' E 008°34'0 0.0
2018-Feb-14 21:00N 53°31' E 008°34'0 0.0
2018-Feb-14 20:30N 53°31' E 008°34'0 0.0
2018-Feb-14 20:00N 53°31' E 008°34'0 0.0
2018-Feb-14 19:27N 53°31' E 008°34'0 0.0
2018-Feb-14 19:00N 53°31' E 008°34'0 0.0
2018-Feb-14 18:30N 53°31' E 008°34'0 0.0
2018-Feb-14 18:00N 53°31' E 008°34'0 0.0
2018-Feb-14 17:30N 53°31' E 008°34'0 0.0
2018-Feb-14 17:00N 53°31' E 008°34'0 0.0
2018-Feb-14 16:30N 53°31' E 008°34'0 0.0
2018-Feb-14 16:00N 53°31' E 008°34'0 0.0
2018-Feb-14 15:30N 53°31' E 008°34'0 0.0
2018-Feb-14 15:00N 53°31' E 008°34'0 0.0
2018-Feb-14 14:30N 53°31' E 008°34'0 0.0
2018-Feb-14 14:00N 53°31' E 008°34'0 0.0
2018-Feb-14 13:30N 53°31' E 008°34'0 0.0
2018-Feb-14 13:00N 53°31' E 008°34'0 0.0
2018-Feb-14 12:30N 53°31' E 008°34'0 0.0
2018-Feb-14 11:57N 53°31' E 008°34'0 0.0
2018-Feb-14 11:30N 53°31' E 008°34'0 0.0
2018-Feb-14 11:00N 53°31' E 008°34'0 0.0
2018-Feb-14 10:30N 53°31' E 008°34'0 0.0
2018-Feb-14 10:00N 53°31' E 008°34'0 0.0
2018-Feb-14 09:30N 53°31' E 008°34'0 0.0
2018-Feb-14 09:00N 53°31' E 008°34'0 0.0
2018-Feb-14 08:30N 53°31' E 008°34'0 0.0
2018-Feb-14 08:00N 53°31' E 008°34'0 0.0
2018-Feb-14 07:30N 53°31' E 008°34'0 0.0
2018-Feb-14 07:00N 53°31' E 008°34'0 0.0
2018-Feb-14 06:30N 53°31' E 008°34'0 0.0
2018-Feb-14 06:00N 53°31' E 008°34'0 0.0
2018-Feb-14 05:30N 53°31' E 008°34'0 0.0
2018-Feb-14 05:00N 53°31' E 008°34'0 0.0
2018-Feb-14 04:30N 53°31' E 008°34'0 0.0
2018-Feb-14 04:00N 53°31' E 008°34'0 0.0
2018-Feb-14 03:30N 53°31' E 008°34'0 0.0
2018-Feb-14 03:00N 53°31' E 008°34'0 0.0
2018-Feb-14 02:30N 53°31' E 008°34'0 0.0
2018-Feb-14 02:00N 53°31' E 008°34'0 0.0
2018-Feb-14 01:30N 53°31' E 008°34'0 0.0
2018-Feb-14 01:00N 53°31' E 008°34'0 0.0
2018-Feb-14 00:30N 53°31' E 008°34'0 0.0
2018-Feb-14 00:00N 53°31' E 008°34'0 0.0
2018-Feb-13 23:30N 53°31' E 008°34'0 0.0
2018-Feb-13 23:00N 53°31' E 008°34'0 0.0
2018-Feb-13 22:30N 53°31' E 008°34'0 0.0
2018-Feb-13 22:00N 53°31' E 008°34'0 0.0
2018-Feb-13 21:30N 53°31' E 008°34'0 0.0
2018-Feb-13 21:00N 53°31' E 008°34'0 0.0
2018-Feb-13 20:30N 53°31' E 008°34'0 0.0
2018-Feb-13 20:00N 53°31' E 008°34'0 0.0
2018-Feb-13 19:30N 53°31' E 008°34'0 0.0
2018-Feb-13 19:00N 53°31' E 008°34'0 0.0
2018-Feb-13 18:30N 53°31' E 008°34'0 0.0
2018-Feb-13 18:00N 53°31' E 008°34'0 0.0
2018-Feb-13 17:30N 53°31' E 008°34'0 0.0
2018-Feb-13 17:00N 53°31' E 008°34'0 0.0
2018-Feb-13 16:30N 53°31' E 008°34'0 0.0
2018-Feb-13 16:00N 53°31' E 008°34'0 0.0
2018-Feb-13 15:30N 53°31' E 008°34'0 0.0
2018-Feb-13 15:00N 53°31' E 008°34'0 0.0
2018-Feb-13 14:30N 53°31' E 008°34'0 0.0
2018-Feb-13 14:00N 53°31' E 008°34'0 0.0
2018-Feb-13 13:30N 53°31' E 008°34'0 0.0
2018-Feb-13 13:00N 53°31' E 008°34'0 0.0
2018-Feb-13 12:30N 53°31' E 008°34'0 0.0
2018-Feb-13 12:00N 53°31' E 008°34'0 0.0
2018-Feb-13 11:30N 53°31' E 008°34'0 0.0
2018-Feb-13 11:00N 53°31' E 008°34'0 0.0
2018-Feb-13 10:30N 53°31' E 008°34'0 0.0
2018-Feb-13 10:00N 53°31' E 008°34'0 0.0
2018-Feb-13 09:30N 53°31' E 008°34'0 0.0
2018-Feb-13 09:00N 53°31' E 008°34'0 0.0
2018-Feb-13 08:30N 53°31' E 008°34'0 0.0
2018-Feb-13 08:00N 53°31' E 008°34'0 0.0
2018-Feb-13 07:30N 53°31' E 008°34'0 0.0
2018-Feb-13 07:00N 53°31' E 008°34'0 0.0
2018-Feb-13 06:30N 53°31' E 008°34'0 0.0
2018-Feb-13 06:00N 53°31' E 008°34'0 0.0
2018-Feb-13 05:30N 53°31' E 008°34'0 0.0
2018-Feb-13 05:00N 53°31' E 008°34'0 0.0
2018-Feb-13 04:30N 53°31' E 008°34'0 0.0
2018-Feb-13 04:00N 53°31' E 008°34'0 0.0
2018-Feb-13 03:30N 53°31' E 008°34'0 0.0
2018-Feb-13 03:00N 53°31' E 008°34'0 0.0
2018-Feb-13 02:30N 53°31' E 008°34'0 0.0
2018-Feb-13 02:00N 53°31' E 008°34'0 0.0
2018-Feb-13 01:30N 53°31' E 008°34'0 0.0
2018-Feb-13 01:00N 53°31' E 008°34'0 0.0
2018-Feb-13 00:30N 53°31' E 008°34'0 0.0
2018-Feb-13 00:00N 53°31' E 008°34'0 0.0
2018-Feb-12 23:30N 53°31' E 008°34'0 0.0
2018-Feb-12 23:00N 53°31' E 008°34'0 0.0
2018-Feb-12 22:30N 53°31' E 008°34'0 0.0
2018-Feb-12 22:00N 53°31' E 008°34'0 0.0
2018-Feb-12 21:30N 53°31' E 008°34'0 0.0
2018-Feb-12 21:00N 53°31' E 008°34'0 0.0
2018-Feb-12 20:30N 53°31' E 008°34'0 0.0
2018-Feb-12 20:00N 53°31' E 008°34'0 0.0
2018-Feb-12 19:30N 53°31' E 008°34'0 0.0
2018-Feb-12 19:00N 53°31' E 008°34'0 0.0
2018-Feb-12 18:30N 53°31' E 008°34'0 0.0
2018-Feb-12 18:00N 53°31' E 008°34'0 0.0
2018-Feb-12 17:30N 53°31' E 008°34'0 0.0
2018-Feb-12 17:00N 53°31' E 008°34'0 0.0
2018-Feb-12 16:30N 53°31' E 008°34'0 0.0
2018-Feb-12 16:00N 53°31' E 008°34'0 0.0
2018-Feb-12 15:30N 53°31' E 008°34'0 0.0
2018-Feb-12 15:00N 53°31' E 008°34'0 0.0
2018-Feb-12 14:30N 53°31' E 008°34'0 0.0
2018-Feb-12 14:00N 53°31' E 008°34'0 0.0
2018-Feb-12 13:30N 53°31' E 008°34'0 0.0
2018-Feb-12 12:54N 53°31' E 008°34'0 0.0
2018-Feb-12 12:30N 53°31' E 008°34'0 0.0
2018-Feb-12 12:00N 53°31' E 008°34'0 0.0
2018-Feb-12 11:30N 53°31' E 008°34'0 0.0
2018-Feb-12 11:00N 53°31' E 008°34'0 0.0
2018-Feb-12 10:30N 53°31' E 008°34'0 0.0
2018-Feb-12 10:00N 53°31' E 008°34'0 0.0
2018-Feb-12 09:30N 53°31' E 008°34'0 0.0
2018-Feb-12 09:00N 53°31' E 008°34'0 0.0
2018-Feb-12 08:30N 53°31' E 008°34'0 0.0
2018-Feb-12 08:00N 53°31' E 008°34'0 0.0
2018-Feb-12 07:30N 53°31' E 008°34'0 0.0
2018-Feb-12 07:00N 53°31' E 008°34'0 0.0
2018-Feb-12 06:30N 53°31' E 008°34'0 0.0
2018-Feb-12 06:00N 53°31' E 008°34'0 0.0
2018-Feb-12 05:30N 53°31' E 008°34'0 0.0
2018-Feb-12 05:00N 53°31' E 008°34'0 0.0
2018-Feb-12 04:30N 53°31' E 008°34'0 0.0
2018-Feb-12 04:00N 53°31' E 008°34'0 0.0
2018-Feb-12 03:30N 53°31' E 008°34'0 0.0
2018-Feb-12 03:00N 53°31' E 008°34'0 0.0
2018-Feb-12 02:30N 53°31' E 008°34'0 0.0
2018-Feb-12 02:00N 53°31' E 008°34'0 0.0
2018-Feb-12 01:30N 53°31' E 008°34'0 0.0
2018-Feb-12 01:00N 53°31' E 008°34'0 0.0
2018-Feb-12 00:27N 53°31' E 008°34'0 0.0
2018-Feb-12 00:00N 53°31' E 008°34'0 0.0
2018-Feb-11 23:30N 53°31' E 008°34'0 0.0
2018-Feb-11 23:00N 53°31' E 008°34'0 0.0
2018-Feb-11 22:30N 53°31' E 008°34'0 0.0
2018-Feb-11 21:57N 53°31' E 008°34'0 0.0
2018-Feb-11 21:30N 53°31' E 008°34'0 0.0
2018-Feb-11 21:00N 53°31' E 008°34'0 0.0
2018-Feb-11 20:30N 53°31' E 008°34'0 0.0
2018-Feb-11 20:00N 53°31' E 008°34'0 0.0
2018-Feb-11 19:30N 53°31' E 008°34'0 0.0
2018-Feb-11 19:00N 53°31' E 008°34'0 0.0
2018-Feb-11 18:30N 53°31' E 008°34'0 0.0
2018-Feb-11 18:00N 53°31' E 008°34'0 0.0
2018-Feb-11 17:30N 53°31' E 008°34'0 0.0
2018-Feb-11 17:00N 53°31' E 008°34'0 0.0
2018-Feb-11 16:30N 53°31' E 008°34'0 0.0
2018-Feb-11 16:00N 53°31' E 008°34'0 0.0
2018-Feb-11 15:30N 53°31' E 008°34'0 0.0
2018-Feb-11 15:00N 53°31' E 008°34'0 0.0
2018-Feb-11 14:30N 53°31' E 008°34'0 0.0
2018-Feb-11 14:00N 53°31' E 008°34'0 0.0
2018-Feb-11 13:30N 53°31' E 008°34'0 0.0
2018-Feb-11 12:56N 53°31' E 008°34'0 0.0
2018-Feb-11 12:30N 53°31' E 008°34'0 0.0
2018-Feb-11 12:00N 53°31' E 008°34'0 0.0
2018-Feb-11 11:30N 53°31' E 008°34'0 0.0
2018-Feb-11 11:00N 53°31' E 008°34'0 0.0
2018-Feb-11 10:30N 53°31' E 008°34'0 0.0
2018-Feb-11 10:00N 53°31' E 008°34'0 0.0
2018-Feb-11 09:29N 53°31' E 008°34'0 0.0
2018-Feb-11 09:00N 53°31' E 008°34'0 0.0
2018-Feb-11 08:30N 53°31' E 008°34'0 0.0
2018-Feb-11 07:59N 53°31' E 008°34'0 0.0
2018-Feb-11 07:30N 53°31' E 008°34'0 0.0
2018-Feb-11 07:00N 53°31' E 008°34'0 0.0
2018-Feb-11 06:30N 53°31' E 008°34'0 0.0
2018-Feb-11 06:00N 53°31' E 008°34'0 0.0
2018-Feb-11 05:30N 53°31' E 008°34'0 0.0
2018-Feb-11 05:00N 53°31' E 008°34'0 0.0
2018-Feb-11 04:29N 53°31' E 008°34'0 0.0
2018-Feb-11 04:00N 53°31' E 008°34'0 0.0
2018-Feb-11 03:29N 53°31' E 008°34'0 0.0
2018-Feb-11 03:00N 53°31' E 008°34'0 0.0
2018-Feb-11 02:29N 53°31' E 008°34'0 0.0
2018-Feb-11 02:00N 53°31' E 008°34'0 0.0
2018-Feb-11 01:30N 53°31' E 008°34'0 0.0
2018-Feb-11 01:00N 53°31' E 008°34'0 0.0
2018-Feb-11 00:30N 53°31' E 008°34'0 0.0
2018-Feb-10 23:59N 53°31' E 008°34'0 0.0
2018-Feb-10 23:30N 53°31' E 008°34'0 0.0
2018-Feb-10 23:00N 53°31' E 008°34'0 0.0
2018-Feb-10 22:29N 53°31' E 008°34'0 0.0
2018-Feb-10 22:00N 53°31' E 008°34'0 0.0
2018-Feb-10 21:29N 53°31' E 008°34'0 0.0
2018-Feb-10 20:59N 53°31' E 008°34'0 0.0
2018-Feb-10 20:30N 53°31' E 008°34'0 0.0
2018-Feb-10 19:59N 53°31' E 008°34'0 0.0
2018-Feb-10 19:29N 53°31' E 008°34'0 0.0
2018-Feb-10 18:59N 53°31' E 008°34'0 0.0
2018-Feb-10 18:30N 53°31' E 008°34'0 0.0
2018-Feb-10 17:59N 53°31' E 008°34'0 0.0
2018-Feb-10 17:29N 53°31' E 008°34'0 0.0
2018-Feb-10 16:59N 53°31' E 008°34'0 0.0
2018-Feb-10 16:30N 53°31' E 008°34'0 0.0
2018-Feb-10 15:59N 53°31' E 008°34'0 0.0
2018-Feb-10 15:29N 53°31' E 008°34'0 0.0
2018-Feb-10 14:59N 53°31' E 008°34'0 0.0
2018-Feb-10 14:29N 53°31' E 008°34'0 0.0
2018-Feb-10 13:59N 53°31' E 008°34'0 0.0
2018-Feb-10 13:30N 53°31' E 008°34'0 0.0
2018-Feb-10 12:59N 53°31' E 008°34'0 0.0
2018-Feb-10 12:29N 53°31' E 008°34'0 0.0
2018-Feb-10 11:59N 53°31' E 008°34'0 0.0
2018-Feb-10 11:29N 53°31' E 008°34'0 0.0
2018-Feb-10 10:59N 53°31' E 008°34'0 0.0
2018-Feb-10 10:29N 53°31' E 008°34'0 0.0
2018-Feb-10 10:00N 53°31' E 008°34'0 0.0
2018-Feb-10 09:29N 53°31' E 008°34'0 0.0
2018-Feb-10 08:59N 53°31' E 008°34'0 0.0
2018-Feb-10 08:29N 53°31' E 008°34'0 0.0
2018-Feb-10 07:59N 53°31' E 008°34'0 0.0
2018-Feb-10 07:29N 53°31' E 008°34'0 0.0
2018-Feb-10 06:59N 53°31' E 008°34'0 0.0
2018-Feb-10 06:29N 53°31' E 008°34'0 0.0
2018-Feb-10 05:59N 53°31' E 008°34'0 0.0
2018-Feb-10 05:29N 53°31' E 008°34'0 0.0
2018-Feb-10 04:59N 53°31' E 008°34'0 0.0
2018-Feb-10 04:29N 53°31' E 008°34'0 0.0
2018-Feb-10 03:59N 53°31' E 008°34'0 0.0
2018-Feb-10 03:29N 53°31' E 008°34'0 0.0
2018-Feb-10 03:00N 53°31' E 008°34'0 0.0
2018-Feb-10 02:29N 53°31' E 008°34'0 0.0
2018-Feb-10 01:59N 53°31' E 008°34'0 0.0
2018-Feb-10 01:29N 53°31' E 008°34'0 0.0
2018-Feb-10 00:59N 53°31' E 008°34'0 0.0
2018-Feb-10 00:29N 53°31' E 008°34'0 0.0
2018-Feb-09 23:59N 53°31' E 008°34'0 0.0
2018-Feb-09 23:29N 53°31' E 008°34'0 0.0
2018-Feb-09 22:59N 53°31' E 008°34'0 0.0
2018-Feb-09 22:44N 53°31' E 008°34'  

Dump ship's entire track history